Share

Allendale, SC

Joe Miley Road (KSCBRUNS5) Elev 135 ft | 32.94 °N, 81.13 °W | Change Station

Current weather conditions updated 6 minutes ago

Overcast
Overcast
68.9 °F
Feels Like 68.9 °F
N
7.8
Wind Variable Wind from NW
Sunrise 6:49 AM
Sunset 7:59 PM
Moon Waning Gibbous

Tomorrow is forecast to be Warmer than today.

Pressure 30.12 in
Visibility 10.0 miles
Clouds Overcast 3800 ft
Dew Point 54 °F
Humidity 58%
Rainfall 0.02 in
Snow Depth Not available.
UV 2 out of 16
Pollen 9.20 out of 12
Air Quality Not available.
Flu Activity Local Activity
METAR KJYL 201955Z AUTO 04013G17KT 10SM OVC038 22/12 A3012 RMK AO2 T02150115

More Conditions Fewer Conditions

Pressure 30.12 in
Visibility 10.0 miles
Clouds Overcast 3800 ft
Dew Point 54 °F
Humidity 58%
Rainfall 0.02 in
Snow Depth Not available.
UV 2 out of 16
Pollen 9.20 out of 12
Air Quality Not available.
Flu Activity Local Activity
METAR KJYL 201955Z AUTO 04013G17KT 10SM OVC038 22/12 A3012 RMK AO2 T02150115

More Conditions Fewer Conditions

10-Day Weather Forecast

Almanac

Astronomy

Apr. 20, 2014 Rise Set
Actual Time 6:49 AM EDT 7:59 PM EDT
Civil Twilight 6:23 AM EDT 8:24 PM EDT
Nautical Twilight 5:53 AM EDT 8:55 PM EDT
Astronomical Twilight 5:21 AM EDT 9:27 PM EDT
Moon 12:31 AM EDT 11:14 AM EDT
Length of Visible Light 14h 01m
Length of Day
13h 09m
Tomorrow will be 1m 53s longer.
Waning Gibbous, 67% of the Moon is Illuminated
Today
Waning Gibbous
Apr 22
Last Quarter
Apr 29
New
May 6
First Quarter
May 14
Full

Today's Extremes

State Highs State Lows

Community

  • Morning Sun
    Morning Sun
  • after rain
    after rain
  • Columbine
    Columbine
  • Easter Sunrise
    Easter Sunrise
  • Easter Eve - The Promise - Lake Palestine, TX
    Easter Eve - The Promise - Lake Palestine, TX

WunderPhotos

Upload Photos

1,703,340 photos uploaded!

WunderBlogs® & News

Nearby

Snow Depth

Station Depth Elevation
No new snow has been reported.

Coastal Water Temperatures

Place Temperature
No Stations Reporting

Earthquake Activity

City Distance Mag. Time & Date
No recent earthquake activity has been reported nearby.
Minimum magnitude displayed is 2.5.

Nearby Weather Stations

Station Location Temp. Heat Index Dew Point Humidity Wind Precip. Elev Updated Type
Joe Miley Road, Brunson, SC 68.9 °F - 54 °F 58% NW  at  7.8 mph - / hr 135 ft 4:10 PM EDT Normal
RAWS SAVRAW SC, Aiken, SC 73 °F 77 °F 47 °F 40% NE  at  8 mph 0.00 in / hr 330 ft 3:06 PM EDT MADIS

Show More Stations Show Fewer Stations

What do you think?

We're not finished. Please let us know what you like, what you don't like, and what you are still missing.